createdAt,value
2022-09-17T00:01:25.209Z,2.50
2022-09-17T00:03:55.834Z,2.13
2022-09-17T00:06:25.151Z,2.47
2022-09-17T00:08:54.217Z,2.70
2022-09-17T00:11:29.086Z,2.17
2022-09-17T00:13:58.894Z,2.20
2022-09-17T00:16:36.573Z,2.20
2022-09-17T00:19:06.065Z,2.20
2022-09-17T00:21:33.046Z,2.30
2022-09-17T00:24:03.486Z,2.70
2022-09-17T00:26:32.039Z,2.13
2022-09-17T00:29:00.329Z,1.92
2022-09-17T00:31:28.953Z,1.80
2022-09-17T00:33:55.957Z,1.80
2022-09-17T00:36:23.723Z,2.08
2022-09-17T00:38:55.714Z,1.80
2022-09-17T00:41:25.567Z,1.92
2022-09-17T00:44:01.756Z,1.80
2022-09-17T00:46:36.283Z,2.03
2022-09-17T00:49:11.999Z,2.10
2022-09-17T00:51:49.964Z,2.10
2022-09-17T00:54:16.881Z,1.80
2022-09-17T00:56:44.414Z,1.80
2022-09-17T00:59:11.508Z,2.05
2022-09-17T01:01:39.118Z,2.10
2022-09-17T01:04:06.083Z,2.10
2022-09-17T01:06:41.851Z,2.08
2022-09-17T01:09:48.946Z,2.10
2022-09-17T01:12:55.237Z,1.85
2022-09-17T01:15:35.111Z,1.67
2022-09-17T01:18:36.887Z,2.10
2022-09-17T01:21:41.046Z,1.98
2022-09-17T01:24:35.871Z,1.98
2022-09-17T01:27:34.183Z,2.13
2022-09-17T01:30:32.470Z,2.03
2022-09-17T01:33:15.917Z,2.00
2022-09-17T01:36:06.865Z,2.00
2022-09-17T01:38:55.290Z,1.80
2022-09-17T01:41:43.882Z,2.22
2022-09-17T01:44:44.798Z,1.83
2022-09-17T01:47:22.653Z,1.83
2022-09-17T01:49:56.346Z,1.80
2022-09-17T01:52:25.144Z,1.90
2022-09-17T01:54:56.954Z,2.30
2022-09-17T01:57:30.445Z,2.20
2022-09-17T02:00:11.911Z,2.20
2022-09-17T02:03:07.725Z,1.88
2022-09-17T02:05:43.191Z,1.90
2022-09-17T02:08:19.192Z,1.60
2022-09-17T02:10:52.792Z,1.83
2022-09-17T02:13:23.402Z,1.70
2022-09-17T02:15:57.825Z,1.60
2022-09-17T02:18:33.893Z,1.73
2022-09-17T02:21:15.588Z,1.85
2022-09-17T02:24:04.362Z,2.00
2022-09-17T02:26:32.966Z,1.95
2022-09-17T02:29:08.945Z,1.70
2022-09-17T02:31:35.934Z,1.80
2022-09-17T02:34:04.567Z,1.85
2022-09-17T02:36:32.267Z,2.00
2022-09-17T02:39:01.725Z,1.88
2022-09-17T02:41:50.567Z,1.80
2022-09-17T02:44:35.388Z,1.85
2022-09-17T02:47:38.131Z,1.92
2022-09-17T02:51:08.359Z,1.92
2022-09-17T02:54:16.259Z,1.95
2022-09-17T02:56:57.229Z,1.92
2022-09-17T02:59:42.604Z,1.80
2022-09-17T03:02:17.572Z,1.95
2022-09-17T03:04:47.806Z,2.20
2022-09-17T03:07:15.192Z,2.10
2022-09-17T03:09:43.567Z,2.45
2022-09-17T03:12:11.741Z,2.20
2022-09-17T03:14:38.693Z,2.00
2022-09-17T03:17:05.618Z,2.17
2022-09-17T03:19:32.836Z,2.00
2022-09-17T03:21:59.705Z,2.10
2022-09-17T03:24:27.143Z,1.90
2022-09-17T03:26:54.095Z,2.22
2022-09-17T03:29:21.054Z,2.03
2022-09-17T03:31:48.018Z,2.60
2022-09-17T03:34:14.925Z,2.30
2022-09-17T03:36:41.819Z,2.10
2022-09-17T03:39:08.782Z,2.10
2022-09-17T03:41:35.692Z,2.30
2022-09-17T03:44:03.016Z,2.17
2022-09-17T03:46:29.994Z,2.03
2022-09-17T03:48:56.921Z,2.22
2022-09-17T03:51:23.819Z,2.35
2022-09-17T03:53:50.797Z,2.25
2022-09-17T03:56:17.886Z,2.50
2022-09-17T03:58:44.866Z,2.38
2022-09-17T04:01:11.819Z,2.35
2022-09-17T04:03:38.830Z,2.50
2022-09-17T04:06:05.881Z,2.28
2022-09-17T04:08:32.808Z,2.30
2022-09-17T04:10:59.709Z,2.13
2022-09-17T04:13:26.575Z,2.03
2022-09-17T04:15:53.545Z,2.30
2022-09-17T04:18:20.522Z,2.10
2022-09-17T04:20:47.490Z,2.28
2022-09-17T04:23:14.439Z,2.50
2022-09-17T04:25:41.684Z,2.50
2022-09-17T04:28:08.656Z,2.22
2022-09-17T04:30:35.909Z,2.50
2022-09-17T04:33:03.275Z,2.60
2022-09-17T04:35:30.648Z,2.40
2022-09-17T04:37:58.475Z,2.28
2022-09-17T04:40:27.171Z,2.60
2022-09-17T04:42:55.912Z,2.35
2022-09-17T04:45:23.551Z,2.67
2022-09-17T04:47:52.970Z,2.10
2022-09-17T04:50:20.427Z,2.53
2022-09-17T04:52:48.353Z,2.65
2022-09-17T04:55:16.229Z,2.75
2022-09-17T04:57:52.309Z,2.97
2022-09-17T05:00:21.502Z,2.63
2022-09-17T05:02:52.910Z,2.20
2022-09-17T05:05:20.805Z,2.67
2022-09-17T05:07:47.806Z,2.60
2022-09-17T05:10:17.267Z,2.40
2022-09-17T05:12:55.999Z,2.50
2022-09-17T05:15:24.684Z,2.60
2022-09-17T05:17:51.645Z,2.72
2022-09-17T05:20:18.860Z,2.85
2022-09-17T05:22:49.502Z,2.22
2022-09-17T05:25:18.248Z,2.50
2022-09-17T05:27:45.642Z,3.60
2022-09-17T05:30:13.176Z,2.55
2022-09-17T05:32:40.880Z,2.60
2022-09-17T05:35:09.336Z,2.42
2022-09-17T05:37:36.727Z,2.15
2022-09-17T05:40:07.153Z,2.13
2022-09-17T05:42:34.380Z,2.38
2022-09-17T05:45:01.386Z,2.10
2022-09-17T05:47:28.294Z,2.30
2022-09-17T05:49:55.182Z,2.25
2022-09-17T05:52:22.088Z,1.98
2022-09-17T05:54:49.026Z,1.83
2022-09-17T05:57:16.140Z,2.25
2022-09-17T05:59:43.227Z,1.60
2022-09-17T06:02:13.980Z,1.65
2022-09-17T06:04:41.141Z,1.70
2022-09-17T06:07:09.360Z,1.40
2022-09-17T06:09:37.706Z,1.65
2022-09-17T06:12:05.862Z,1.45
2022-09-17T06:14:32.948Z,1.55
2022-09-17T06:17:00.374Z,1.83
2022-09-17T06:19:27.935Z,1.40
2022-09-17T06:21:55.270Z,1.67
2022-09-17T06:24:22.226Z,1.80
2022-09-17T06:26:49.072Z,1.52
2022-09-17T06:29:16.073Z,1.60
2022-09-17T06:31:46.232Z,1.50
2022-09-17T06:34:13.222Z,1.80
2022-09-17T06:36:40.307Z,1.75
2022-09-17T06:39:07.798Z,1.60
2022-09-17T06:41:34.729Z,1.30
2022-09-17T06:44:04.853Z,1.33
2022-09-17T06:46:31.856Z,1.33
2022-09-17T06:48:59.014Z,2.13
2022-09-17T06:51:25.939Z,1.60
2022-09-17T06:53:52.797Z,1.70
2022-09-17T06:56:19.923Z,1.58
2022-09-17T06:58:47.052Z,1.58
2022-09-17T07:01:14.609Z,1.55
2022-09-17T07:03:43.533Z,1.85
2022-09-17T07:06:11.305Z,1.80
2022-09-17T07:08:39.485Z,2.10
2022-09-17T07:11:06.474Z,1.70
2022-09-17T07:13:33.347Z,3.58
2022-09-17T07:16:02.817Z,2.28
2022-09-17T07:18:29.828Z,1.60
2022-09-17T07:21:00.204Z,1.80
2022-09-17T07:23:36.161Z,1.70
2022-09-17T07:26:12.405Z,1.58
2022-09-17T07:28:40.737Z,1.70
2022-09-17T07:31:12.448Z,1.75
2022-09-17T07:33:42.516Z,2.03
2022-09-17T07:36:13.680Z,1.70
2022-09-17T07:38:40.737Z,1.67
2022-09-17T07:41:16.787Z,1.83
2022-09-17T07:43:44.669Z,1.88
2022-09-17T07:46:16.819Z,1.90
2022-09-17T07:48:43.881Z,1.58
2022-09-17T07:51:19.491Z,2.20
2022-09-17T07:53:47.742Z,1.92
2022-09-17T07:56:14.849Z,2.03
2022-09-17T07:58:42.274Z,2.00
2022-09-17T08:01:12.008Z,1.67
2022-09-17T08:03:40.170Z,1.80
2022-09-17T08:06:13.373Z,1.90
2022-09-17T08:08:41.315Z,1.98
2022-09-17T08:11:32.411Z,2.10
2022-09-17T08:14:05.248Z,2.20
2022-09-17T08:16:32.311Z,2.15
2022-09-17T08:18:59.288Z,1.88
2022-09-17T08:21:26.388Z,2.05
2022-09-17T08:23:53.249Z,1.88
2022-09-17T08:26:22.977Z,2.08
2022-09-17T08:28:56.564Z,1.67
2022-09-17T08:31:26.903Z,1.77
2022-09-17T08:33:53.988Z,1.80
2022-09-17T08:36:22.750Z,1.60
2022-09-17T08:38:53.903Z,2.17
2022-09-17T08:41:54.365Z,1.38
2022-09-17T08:44:52.366Z,1.80
2022-09-17T08:47:36.490Z,1.58
2022-09-17T08:50:07.594Z,1.92
2022-09-17T08:52:59.568Z,1.38
2022-09-17T08:55:53.423Z,1.40
2022-09-17T08:58:44.497Z,1.63
2022-09-17T09:01:28.154Z,1.45
2022-09-17T09:04:40.085Z,1.52
2022-09-17T09:07:39.691Z,1.63
2022-09-17T09:10:27.978Z,1.42
2022-09-17T09:12:57.477Z,1.70
2022-09-17T09:15:36.269Z,1.48
2022-09-17T09:18:18.762Z,1.33
2022-09-17T09:20:55.012Z,1.45
2022-09-17T09:23:46.756Z,1.40
2022-09-17T09:26:19.155Z,1.45
2022-09-17T09:29:30.568Z,1.55
2022-09-17T09:32:22.993Z,1.85
2022-09-17T09:34:50.614Z,4.30
2022-09-17T09:38:01.058Z,1.67
2022-09-17T09:40:41.910Z,3.47
2022-09-17T09:44:02.645Z,2.92
2022-09-17T09:47:04.802Z,2.13
2022-09-17T09:50:08.183Z,1.65
2022-09-17T09:52:58.746Z,2.10
2022-09-17T09:56:05.624Z,2.40
2022-09-17T09:58:38.681Z,3.70
2022-09-17T10:01:23.114Z,2.85
2022-09-17T10:03:52.755Z,5.93
2022-09-17T10:06:20.087Z,5.13
2022-09-17T10:08:55.338Z,4.82
2022-09-17T10:11:28.001Z,5.50
2022-09-17T10:14:14.066Z,5.78
2022-09-17T10:16:41.005Z,4.85
2022-09-17T10:19:07.757Z,4.35
2022-09-17T10:21:42.752Z,4.03
2022-09-17T10:24:31.070Z,4.10
2022-09-17T10:27:03.276Z,5.38
2022-09-17T10:29:30.529Z,2.35
2022-09-17T10:31:58.944Z,2.40
2022-09-17T10:34:29.028Z,2.90
2022-09-17T10:36:57.290Z,3.25
2022-09-17T10:39:27.115Z,2.80
2022-09-17T10:42:11.261Z,1.90
2022-09-17T10:44:39.944Z,1.63
2022-09-17T10:47:14.566Z,1.92
2022-09-17T10:49:47.169Z,1.83
2022-09-17T10:52:37.785Z,1.73
2022-09-17T10:55:49.848Z,2.60
2022-09-17T10:58:43.876Z,6.00
2022-09-17T11:01:34.924Z,2.72
2022-09-17T11:04:34.554Z,2.53
2022-09-17T11:07:24.177Z,1.77
2022-09-17T11:10:31.846Z,1.65
2022-09-17T11:13:24.652Z,1.92
2022-09-17T11:16:35.888Z,1.88
2022-09-17T11:19:24.576Z,2.17
2022-09-17T11:22:12.055Z,1.98
2022-09-17T11:24:56.863Z,1.75
2022-09-17T11:28:03.917Z,2.50
2022-09-17T11:31:13.926Z,4.28
2022-09-17T11:34:17.259Z,4.13
2022-09-17T11:36:57.207Z,2.97
2022-09-17T11:39:53.785Z,2.83
2022-09-17T11:42:28.033Z,2.55
2022-09-17T11:45:10.690Z,2.10
2022-09-17T11:47:47.490Z,2.53
2022-09-17T11:50:21.739Z,2.35
2022-09-17T11:53:17.280Z,1.70
2022-09-17T11:55:56.876Z,2.10
2022-09-17T11:58:34.627Z,2.00
2022-09-17T12:01:19.275Z,1.55
2022-09-17T12:04:00.529Z,1.60
2022-09-17T12:06:38.021Z,1.67
2022-09-17T12:09:14.297Z,1.50
2022-09-17T12:12:04.291Z,1.10
2022-09-17T12:15:06.587Z,1.10
2022-09-17T12:17:49.284Z,1.00
2022-09-17T12:20:29.318Z,1.25
2022-09-17T12:22:58.725Z,1.42
2022-09-17T12:25:33.011Z,1.70
2022-09-17T12:28:11.953Z,1.90
2022-09-17T12:31:13.204Z,1.40
2022-09-17T12:33:55.357Z,1.42
2022-09-17T12:36:42.870Z,1.52
2022-09-17T12:40:03.210Z,1.27
2022-09-17T12:42:44.485Z,1.30
2022-09-17T12:45:23.542Z,1.42
2022-09-17T12:48:25.593Z,1.60
2022-09-17T12:51:53.793Z,1.25
2022-09-17T12:54:45.262Z,1.40
2022-09-17T12:57:32.257Z,1.48
2022-09-17T13:00:23.809Z,1.42
2022-09-17T13:03:22.807Z,1.70
2022-09-17T13:06:20.213Z,1.83
2022-09-17T13:09:17.672Z,1.83
2022-09-17T13:12:34.636Z,1.90
2022-09-17T13:15:38.955Z,2.60
2022-09-17T13:18:27.660Z,2.33
2022-09-17T13:21:18.077Z,4.10
2022-09-17T13:23:49.499Z,2.60
2022-09-17T13:26:21.371Z,2.33
2022-09-17T13:28:51.179Z,3.28
2022-09-17T13:31:36.843Z,9.38
2022-09-17T13:34:05.062Z,5.32
2022-09-17T13:36:53.021Z,4.45
2022-09-17T13:39:44.834Z,2.47
2022-09-17T13:42:24.395Z,5.72
2022-09-17T13:45:09.952Z,3.97
2022-09-17T13:48:02.499Z,2.70
2022-09-17T13:50:39.050Z,2.40
2022-09-17T13:53:15.060Z,2.50
2022-09-17T13:56:05.068Z,2.65
2022-09-17T13:58:34.549Z,2.67
2022-09-17T14:01:59.214Z,2.30
2022-09-17T14:04:41.053Z,2.33
2022-09-17T14:07:28.867Z,3.25
2022-09-17T14:10:22.367Z,3.55
2022-09-17T14:12:52.254Z,2.95
2022-09-17T14:15:54.951Z,3.67
2022-09-17T14:18:28.003Z,3.92
2022-09-17T14:21:09.844Z,3.53
2022-09-17T14:23:49.845Z,3.22
2022-09-17T14:27:05.260Z,3.42
2022-09-17T14:30:01.478Z,3.50
2022-09-17T14:33:03.484Z,4.05
2022-09-17T14:35:45.988Z,3.42
2022-09-17T14:38:44.623Z,2.83
2022-09-17T14:41:11.494Z,2.30
2022-09-17T14:44:06.143Z,2.38
2022-09-17T14:46:38.563Z,2.30
2022-09-17T14:49:27.157Z,2.05
2022-09-17T14:51:56.292Z,2.38
2022-09-17T14:54:36.305Z,2.10
2022-09-17T14:57:09.606Z,3.25
2022-09-17T14:59:58.210Z,3.15
2022-09-17T15:02:44.932Z,2.67
2022-09-17T15:05:21.494Z,2.47
2022-09-17T15:07:48.978Z,1.88
2022-09-17T15:10:22.518Z,2.88
2022-09-17T15:12:50.871Z,3.15
2022-09-17T15:15:25.154Z,3.28
2022-09-17T15:17:53.881Z,4.03
2022-09-17T15:20:25.044Z,4.07
2022-09-17T15:23:14.805Z,5.10
2022-09-17T15:25:44.312Z,4.47
2022-09-17T15:28:37.023Z,4.03
2022-09-17T15:31:06.716Z,2.65
2022-09-17T15:33:34.407Z,2.25
2022-09-17T15:36:08.763Z,2.65
2022-09-17T15:38:39.121Z,2.25
2022-09-17T15:41:31.378Z,2.38
2022-09-17T15:44:30.275Z,2.05
2022-09-17T15:47:44.141Z,2.45
2022-09-17T15:50:25.402Z,2.63
2022-09-17T15:53:30.183Z,5.35
2022-09-17T15:56:14.487Z,4.15
2022-09-17T15:58:41.268Z,3.05
2022-09-17T16:01:17.493Z,2.65
2022-09-17T16:03:44.571Z,2.63
2022-09-17T16:06:23.272Z,2.63
2022-09-17T16:09:00.708Z,3.58
2022-09-17T16:11:31.343Z,3.90
2022-09-17T16:14:00.458Z,7.07
2022-09-17T16:16:35.870Z,10.57
2022-09-17T16:19:04.748Z,10.05
2022-09-17T16:21:32.178Z,8.30
2022-09-17T16:23:59.363Z,6.53
2022-09-17T16:26:31.111Z,5.63
2022-09-17T16:29:05.887Z,5.13
2022-09-17T16:31:33.997Z,5.13
2022-09-17T16:34:01.357Z,5.13
2022-09-17T16:36:31.113Z,5.63
2022-09-17T16:38:59.265Z,5.68
2022-09-17T16:41:26.532Z,5.60
2022-09-17T16:43:53.502Z,6.35
2022-09-17T16:46:20.465Z,7.88
2022-09-17T16:48:51.135Z,10.18
2022-09-17T16:51:18.479Z,10.75
2022-09-17T16:53:45.753Z,10.82
2022-09-17T16:56:15.098Z,12.52
2022-09-17T16:58:42.006Z,14.88
2022-09-17T17:01:16.160Z,13.27
2022-09-17T17:03:45.730Z,13.48
2022-09-17T17:06:19.693Z,12.40
2022-09-17T17:08:47.080Z,11.45
2022-09-17T17:11:14.274Z,10.80
2022-09-17T17:13:44.985Z,10.40
2022-09-17T17:16:15.051Z,8.52
2022-09-17T17:18:46.653Z,6.38
2022-09-17T17:21:15.064Z,6.55
2022-09-17T17:23:47.162Z,6.28
2022-09-17T17:26:16.072Z,7.28
2022-09-17T17:28:43.326Z,6.50
2022-09-17T17:31:11.655Z,6.80
2022-09-17T17:33:38.826Z,6.63
2022-09-17T17:36:08.095Z,6.22
2022-09-17T17:38:36.518Z,6.60
2022-09-17T17:41:15.119Z,6.18
2022-09-17T17:43:42.363Z,6.03
2022-09-17T17:46:11.786Z,6.05
2022-09-17T17:48:39.043Z,5.85
2022-09-17T17:51:09.003Z,5.00
2022-09-17T17:53:36.351Z,5.57
2022-09-17T17:56:08.736Z,5.75
2022-09-17T17:58:38.117Z,5.53
2022-09-17T18:01:17.367Z,5.22
2022-09-17T18:03:44.803Z,4.90
2022-09-17T18:06:12.061Z,5.43
2022-09-17T18:08:41.352Z,5.35
2022-09-17T18:11:10.392Z,5.55
2022-09-17T18:13:39.563Z,5.63
2022-09-17T18:16:10.379Z,5.88
2022-09-17T18:18:44.971Z,6.63
2022-09-17T18:21:18.330Z,6.25
2022-09-17T18:23:46.204Z,7.00
2022-09-17T18:26:16.997Z,7.28
2022-09-17T18:28:44.030Z,7.60
2022-09-17T18:31:29.908Z,7.57
2022-09-17T18:34:04.836Z,7.38
2022-09-17T18:36:34.746Z,7.80
2022-09-17T18:41:52.742Z,6.85
2022-09-17T18:44:21.853Z,8.88
2022-09-17T18:46:50.173Z,10.63
2022-09-17T18:49:17.641Z,8.75
2022-09-17T18:51:44.566Z,9.32
2022-09-17T18:54:12.921Z,8.23
2022-09-17T18:56:41.526Z,8.73
2022-09-17T18:59:09.646Z,8.73
2022-09-17T19:01:36.659Z,9.18
2022-09-17T19:04:04.273Z,9.90
2022-09-17T19:06:34.077Z,11.45
2022-09-17T19:09:03.235Z,10.32
2022-09-17T19:11:30.522Z,12.48
2022-09-17T19:13:57.543Z,16.95
2022-09-17T19:16:24.570Z,19.10
2022-09-17T19:18:51.766Z,19.95
2022-09-17T19:21:21.601Z,19.63
2022-09-17T19:23:51.714Z,18.02
2022-09-17T19:26:25.345Z,18.58
2022-09-17T19:28:54.428Z,16.35
2022-09-17T19:31:21.771Z,15.63
2022-09-17T19:33:48.861Z,15.98
2022-09-17T19:36:18.376Z,16.20
2022-09-17T19:38:46.553Z,15.63
2022-09-17T19:41:17.566Z,14.82
2022-09-17T19:43:47.917Z,11.50
2022-09-17T19:46:18.098Z,11.27
2022-09-17T19:48:57.487Z,9.93
2022-09-17T19:51:26.926Z,9.60
2022-09-17T19:53:53.935Z,10.48
2022-09-17T19:56:23.897Z,11.02
2022-09-17T19:58:51.115Z,10.18
2022-09-17T20:01:18.537Z,10.20
2022-09-17T20:03:46.517Z,9.80
2022-09-17T20:06:17.259Z,10.52
2022-09-17T20:08:54.806Z,9.60
2022-09-17T20:11:24.897Z,9.07
2022-09-17T20:13:58.403Z,8.90
2022-09-17T20:16:25.681Z,8.68
2022-09-17T20:18:52.658Z,10.35
2022-09-17T20:21:29.542Z,11.18
2022-09-17T20:23:57.696Z,12.27
2022-09-17T20:26:26.291Z,11.88
2022-09-17T20:28:54.931Z,11.18
2022-09-17T20:31:25.440Z,11.02
2022-09-17T20:33:58.413Z,10.85
2022-09-17T20:36:30.732Z,11.02
2022-09-17T20:39:11.351Z,10.48
2022-09-17T20:41:40.336Z,10.57
2022-09-17T20:44:07.840Z,10.20
2022-09-17T20:46:34.867Z,9.88
2022-09-17T20:49:01.886Z,11.45
2022-09-17T20:51:30.700Z,11.30
2022-09-17T20:53:57.934Z,11.52
2022-09-17T20:56:29.239Z,11.68
2022-09-17T20:59:17.834Z,11.95
2022-09-17T21:01:49.959Z,11.23
2022-09-17T21:04:21.913Z,10.65
2022-09-17T21:06:52.911Z,11.95
2022-09-17T21:09:20.083Z,10.60
2022-09-17T21:11:48.744Z,11.00
2022-09-17T21:14:17.208Z,11.32
2022-09-17T21:16:44.930Z,11.63
2022-09-17T21:19:14.136Z,11.85
2022-09-17T21:21:41.012Z,11.02
2022-09-17T21:24:10.264Z,11.95
2022-09-17T21:26:37.381Z,12.95
2022-09-17T21:29:04.761Z,12.40
2022-09-17T21:31:34.448Z,12.50
2022-09-17T21:34:06.457Z,12.27
2022-09-17T21:36:36.917Z,11.50
2022-09-17T21:39:10.780Z,11.45
2022-09-17T21:41:42.133Z,11.35
2022-09-17T21:44:11.465Z,11.23
2022-09-17T21:46:40.142Z,11.80
2022-09-17T21:49:07.349Z,11.48
2022-09-17T21:51:40.721Z,10.68
2022-09-17T21:54:15.808Z,10.82
2022-09-17T21:56:44.326Z,11.38
2022-09-17T21:59:13.710Z,11.45
2022-09-17T22:01:47.336Z,10.40
2022-09-17T22:04:20.638Z,9.00
2022-09-17T22:06:49.469Z,9.88
2022-09-17T22:09:23.004Z,10.52
2022-09-17T22:11:51.087Z,10.15
2022-09-17T22:14:21.482Z,11.85
2022-09-17T22:16:52.629Z,12.05
2022-09-17T22:19:21.962Z,11.55
2022-09-17T22:21:52.769Z,10.93
2022-09-17T22:24:21.712Z,10.60
2022-09-17T22:26:56.499Z,10.45
2022-09-17T22:29:24.854Z,10.50
2022-09-17T22:31:51.806Z,9.80
2022-09-17T22:34:21.883Z,10.05
2022-09-17T22:36:49.482Z,8.88
2022-09-17T22:39:18.918Z,8.93
2022-09-17T22:41:46.028Z,8.93
2022-09-17T22:44:18.759Z,8.70
2022-09-17T22:46:48.699Z,8.57
2022-09-17T22:49:16.103Z,8.77
2022-09-17T22:51:44.987Z,8.20
2022-09-17T22:54:14.694Z,8.07
2022-09-17T22:56:42.222Z,8.00
2022-09-17T22:59:09.198Z,8.35
2022-09-17T23:01:37.355Z,8.25
2022-09-17T23:04:05.231Z,7.60
2022-09-17T23:06:36.075Z,7.82
2022-09-17T23:09:03.975Z,7.72
2022-09-17T23:11:34.762Z,6.63
2022-09-17T23:14:07.184Z,6.55
2022-09-17T23:16:43.487Z,5.88
2022-09-17T23:19:11.835Z,5.57
2022-09-17T23:21:39.597Z,5.35
2022-09-17T23:24:06.600Z,5.70
2022-09-17T23:26:33.943Z,4.85
2022-09-17T23:29:05.556Z,4.75
2022-09-17T23:31:34.955Z,4.50
2022-09-17T23:34:02.956Z,4.35
2022-09-17T23:36:36.010Z,4.53
2022-09-17T23:39:04.527Z,4.13
2022-09-17T23:41:38.616Z,4.28
2022-09-17T23:44:13.778Z,4.65
2022-09-17T23:46:41.940Z,4.30
2022-09-17T23:49:12.178Z,3.78
2022-09-17T23:51:39.123Z,3.80
2022-09-17T23:54:07.282Z,4.32
2022-09-17T23:56:34.662Z,4.75
2022-09-17T23:59:02.535Z,4.32
